Airfield :
LOGIN :

Register | Disclaimer

   EN    FR    IT 

 










Legend :    VFR   Marginal VFR   IFR   Intensive IFR   Very Intensive IFR
Visi :
Ceiling :
>= 8 km
>= 3000ft
5 to 8 km
1000 to 3000 ft
1500m to 5 km
500 to 1000 ft
800 to 1500m
200 to 500 ft
< 800m
< 200 ft
Symbols :   Thunderstorms  Fog  Heavy snow  Heavy precipitations  Wind > 20 kt
SIGMETs :     Misc.  Thunderstorms  Icing  Turbulence  Mountain Waves  Volcanic Ashes







- Airport Elevation : 1455 ft


ETIH - Hohenfels Army Air Field

CURRENT METAR :
  • 180656Z AUTO 00000KT 0200 FG VV001 07/07 A3006 RMK AO2 SLP187 T00650065 RVRNO $

EXPIRED METARs :
  • 180619Z AUTO 00000KT 0200 FG VV001 06/06 A3006 RMK AO2 SLP189 RVRNO $
  • 180608Z AUTO 00000KT 0400 FG VV001 06/06 A3006 RMK AO2 SLP187 RVRNO $
  • 180558Z AUTO 00000KT 0200 FG VV001 06/06 A3005 RMK AO2 SLP183 RVRNO $
  • 180556Z AUTO 00000KT 0400 FG VV001 06/06 A3005 RMK AO2 SLP183 T00560056 10065 20055 57005 RVRNO $
  • 180548Z AUTO 00000KT 0400 FG VV001 06/06 A3005 RMK AO2 SLP183 RVRNO $
  • 180534Z AUTO 00000KT 0200 FG VV001 06/06 A3006 RMK AO2 SLP187 RVRNO $
  • 180456Z AUTO 00000KT 0600 FG VV001 06/06 A3006 RMK AO2 SLP187 T00560056 RVRNO $

Expired Forecast.
No reported NOTAMs for that airfield.



MET'MAP, your aeronautical weather chart ! - Copyright ORBIFLY December 2007 - Disclaimer

ORBIFLY MET'MAP TEAM :

Programming & Development : Alexandra Zaïnal
Concept & Development : Baudouin d'Aumeries
Co-Development & Prog : Marc-Olivier Méhu
Technical & hardware support : Manuel Goepfert

Contact : metmap@orbifly.com




SOURCES & CREDITS :

   NOAA